Time;durP1;ratioP1;P1;durP2;ratioP2;P2;SDS_P1;SDS_P2;PMS_P1;PMS_P2;Temp;Humidity;BMP_temperature;BMP_pressure;BME280_temperature;BME280_humidity;BME280_pressure;Samples;Min_cycle;Max_cycle;Signal;HPM_P1;HPM_P2
2023/12/10 00:02:20;;;;;;;19.50;9.75;;;-10.10;93.60;;;;;;4938815;29;20491;-84
2023/12/10 00:04:46;;;;;;;20.40;10.57;;;-10.20;93.10;;;;;;4928990;29;20036;-84
2023/12/10 00:07:12;;;;;;;25.27;12.27;;;-10.30;93.00;;;;;;4929562;29;20043;-83
2023/12/10 00:09:38;;;;;;;17.27;10.00;;;-10.30;93.10;;;;;;4930168;29;20026;-83
2023/12/10 00:12:04;;;;;;;23.42;11.13;;;-10.40;93.30;;;;;;4938831;29;20023;-82
2023/12/10 00:14:30;;;;;;;25.15;12.15;;;-10.40;93.60;;;;;;4917140;29;20094;-82
2023/12/10 00:16:56;;;;;;;24.83;13.20;;;-10.40;93.80;;;;;;4929465;29;20023;-80
2023/12/10 00:19:22;;;;;;;26.88;11.70;;;-10.30;93.80;;;;;;4937305;29;20050;-82
2023/12/10 00:21:48;;;;;;;28.77;13.23;;;-10.30;93.50;;;;;;4935834;29;20393;-83
2023/12/10 00:24:14;;;;;;;24.63;10.32;;;-10.30;93.40;;;;;;4930250;29;20035;-81
2023/12/10 00:26:39;;;;;;;26.40;13.57;;;-10.30;93.40;;;;;;4938812;29;20030;-84
2023/12/10 00:29:05;;;;;;;27.23;13.18;;;-10.30;93.40;;;;;;4940312;29;20035;-82
2023/12/10 00:31:31;;;;;;;23.77;11.13;;;-10.30;93.30;;;;;;4933562;29;20028;-83
2023/12/10 00:33:57;;;;;;;28.33;13.20;;;-10.30;93.40;;;;;;4937948;29;20038;-84
2023/12/10 00:36:23;;;;;;;20.00;11.63;;;-10.30;93.60;;;;;;4917477;29;20347;-82
2023/12/10 00:38:49;;;;;;;28.80;16.13;;;-10.30;93.50;;;;;;4936358;29;20024;-84
2023/12/10 00:41:15;;;;;;;26.90;11.52;;;-10.40;93.50;;;;;;4935218;29;20027;-83
2023/12/10 00:43:41;;;;;;;22.90;13.43;;;-10.40;93.60;;;;;;4938071;29;20084;-81
2023/12/10 00:46:08;;;;;;;27.42;14.18;;;-10.40;93.80;;;;;;4937451;29;20035;-83
2023/12/10 00:48:36;;;;;;;23.20;10.52;;;-10.30;93.90;;;;;;4937546;29;20055;-84
2023/12/10 00:51:02;;;;;;;23.95;10.45;;;-10.30;93.80;;;;;;4918876;29;20443;-83
2023/12/10 00:53:28;;;;;;;29.35;12.23;;;-10.20;93.80;;;;;;4930122;29;20031;-83
2023/12/10 00:55:54;;;;;;;20.42;12.32;;;-10.20;94.00;;;;;;4919070;29;20039;-83
2023/12/10 00:58:23;;;;;;;19.60;11.05;;;-10.20;94.00;;;;;;4913421;29;20066;-81
2023/12/10 01:00:49;;;;;;;22.02;10.63;;;-10.10;94.10;;;;;;4934502;29;20079;-82
2023/12/10 01:03:15;;;;;;;29.30;12.63;;;-10.10;94.00;;;;;;4936858;29;20024;-80
2023/12/10 01:05:41;;;;;;;21.27;11.90;;;-10.10;93.80;;;;;;4936726;29;20409;-85
2023/12/10 01:08:07;;;;;;;25.98;12.38;;;-10.10;93.70;;;;;;4938809;29;20087;-81
2023/12/10 01:10:33;;;;;;;26.55;12.65;;;-10.10;93.80;;;;;;4940553;29;20032;-82
2023/12/10 01:12:58;;;;;;;29.58;13.48;;;-10.20;93.80;;;;;;4916969;29;20032;-80
2023/12/10 01:15:31;;;;;;;23.52;12.73;;;-10.20;94.00;;;;;;4927526;29;20023;-82
2023/12/10 01:18:01;;;;;;;27.05;13.45;;;-10.10;94.10;;;;;;4937792;29;20024;-81
2023/12/10 01:20:33;;;;;;;31.70;17.70;;;-10.10;93.90;;;;;;4942699;29;20031;-82
2023/12/10 01:23:00;;;;;;;26.58;12.45;;;-10.10;93.00;;;;;;4939078;29;20114;-78
2023/12/10 01:25:26;;;;;;;26.08;12.35;;;-10.20;93.00;;;;;;4937376;29;20506;-81
2023/12/10 01:27:53;;;;;;;22.02;11.95;;;-10.30;93.30;;;;;;4917000;29;20071;-78
2023/12/10 01:30:25;;;;;;;25.73;13.40;;;-10.20;93.50;;;;;;4934493;29;20047;-80
2023/12/10 01:33:00;;;;;;;28.98;13.00;;;-10.20;93.60;;;;;;4928214;29;20036;-81
2023/12/10 01:35:26;;;;;;;23.70;12.05;;;-10.30;93.50;;;;;;4936043;29;20051;-79
2023/12/10 01:37:52;;;;;;;25.85;12.52;;;-10.30;93.50;;;;;;4915844;29;20067;-80
2023/12/10 01:40:19;;;;;;;23.13;14.25;;;-10.30;93.60;;;;;;4933255;29;20064;-82
2023/12/10 01:42:46;;;;;;;24.52;12.90;;;-10.30;93.50;;;;;;4936060;29;20103;-81
2023/12/10 01:45:13;;;;;;;25.80;12.02;;;-10.50;93.10;;;;;;4937564;29;20043;-81
2023/12/10 01:47:42;;;;;;;20.98;12.52;;;-10.60;93.30;;;;;;4935437;29;20050;-80
2023/12/10 01:50:11;;;;;;;23.38;12.02;;;-10.70;93.40;;;;;;4931554;29;20070;-79
2023/12/10 01:52:38;;;;;;;26.20;11.85;;;-10.70;93.60;;;;;;4936327;29;20090;-80
2023/12/10 01:55:05;;;;;;;26.00;14.20;;;-10.60;93.90;;;;;;4935780;29;20027;-82
2023/12/10 01:57:34;;;;;;;16.00;9.32;;;-10.60;93.90;;;;;;4935659;29;20019;-80
2023/12/10 02:00:01;;;;;;;27.67;13.55;;;-10.60;93.90;;;;;;4935483;29;20430;-82
2023/12/10 02:02:28;;;;;;;29.15;12.82;;;-10.50;94.10;;;;;;4914033;29;20032;-83
2023/12/10 02:04:54;;;;;;;13.07;8.65;;;-10.50;94.10;;;;;;4926004;29;20032;-82
2023/12/10 02:07:21;;;;;;;22.65;12.40;;;-10.50;94.20;;;;;;4935501;29;20038;-83
2023/12/10 02:09:48;;;;;;;24.73;13.52;;;-10.50;94.40;;;;;;4931804;29;20042;-82
2023/12/10 02:12:14;;;;;;;24.05;13.07;;;-10.40;94.50;;;;;;4919655;29;20078;-83
2023/12/10 02:14:40;;;;;;;25.25;12.98;;;-10.40;94.40;;;;;;4939322;29;20031;-81
2023/12/10 02:17:06;;;;;;;26.17;12.33;;;-10.30;94.60;;;;;;4926264;29;20622;-82
2023/12/10 02:19:33;;;;;;;24.77;12.02;;;-10.40;94.30;;;;;;4946749;29;20317;-82
2023/12/10 02:22:01;;;;;;;24.63;13.20;;;-10.30;94.30;;;;;;4937699;29;20028;-83
2023/12/10 02:24:34;;;;;;;21.90;10.23;;;-10.30;94.30;;;;;;4919310;29;20084;-82
2023/12/10 02:27:00;;;;;;;19.67;10.20;;;-10.20;94.40;;;;;;4939014;29;20038;-82
2023/12/10 02:29:26;;;;;;;16.25;10.65;;;-10.20;94.40;;;;;;4940104;29;20027;-83
2023/12/10 02:31:52;;;;;;;22.02;13.75;;;-10.20;94.40;;;;;;4936142;29;20106;-82
2023/12/10 02:34:18;;;;;;;20.65;11.05;;;-10.20;94.40;;;;;;4936956;29;20043;-83
2023/12/10 02:36:44;;;;;;;23.85;12.90;;;-10.20;94.40;;;;;;4935582;29;20397;-84
2023/12/10 02:39:10;;;;;;;26.30;12.80;;;-10.10;94.30;;;;;;4940838;29;20027;-82
2023/12/10 02:41:36;;;;;;;20.67;11.07;;;-10.10;94.30;;;;;;4942895;29;20496;-83
2023/12/10 02:44:02;;;;;;;24.27;12.35;;;-10.10;94.30;;;;;;4936473;29;20027;-80
2023/12/10 02:46:28;;;;;;;22.42;12.45;;;-10.10;94.20;;;;;;4935386;29;20032;-84
2023/12/10 02:48:54;;;;;;;21.45;11.27;;;-10.10;93.90;;;;;;4935114;29;20054;-83
2023/12/10 02:51:20;;;;;;;24.25;14.25;;;-10.10;94.00;;;;;;4915303;29;20028;-81
2023/12/10 02:53:46;;;;;;;20.08;10.25;;;-10.10;94.00;;;;;;4917487;29;20036;-81
2023/12/10 02:56:12;;;;;;;23.55;11.98;;;-10.10;94.20;;;;;;4934719;29;20031;-81
2023/12/10 02:58:38;;;;;;;19.38;12.18;;;-10.10;94.20;;;;;;4934754;29;20126;-80
2023/12/10 03:01:04;;;;;;;24.55;12.82;;;-10.10;94.20;;;;;;4938575;29;20028;-82
2023/12/10 03:03:30;;;;;;;24.83;11.38;;;-10.10;94.10;;;;;;4939800;29;20433;-80
2023/12/10 03:05:57;;;;;;;26.58;12.00;;;-10.10;94.10;;;;;;4934870;29;20034;-82
2023/12/10 03:08:22;;;;;;;21.92;11.02;;;-10.10;93.90;;;;;;4917981;29;20082;-82
2023/12/10 03:10:48;;;;;;;27.35;12.48;;;-10.10;94.00;;;;;;4933484;29;20031;-82
2023/12/10 03:13:14;;;;;;;26.55;13.48;;;-10.10;94.00;;;;;;4915428;29;20040;-83
2023/12/10 03:15:40;;;;;;;22.40;12.57;;;-10.10;93.90;;;;;;4930377;29;20386;-81
2023/12/10 03:18:07;;;;;;;27.50;14.20;;;-10.10;94.00;;;;;;4915744;29;20024;-81
2023/12/10 03:20:33;;;;;;;21.33;11.90;;;-10.10;93.90;;;;;;4930024;29;20020;-82
2023/12/10 03:23:00;;;;;;;25.05;13.25;;;-10.10;94.00;;;;;;4936387;29;20393;-84
2023/12/10 03:25:26;;;;;;;24.98;12.60;;;-10.10;94.00;;;;;;4938539;29;20028;-81
2023/12/10 03:27:51;;;;;;;23.95;11.77;;;-10.00;94.10;;;;;;4924832;29;20409;-82
2023/12/10 03:30:17;;;;;;;25.52;12.02;;;-10.00;94.10;;;;;;4920562;29;20016;-83
2023/12/10 03:32:43;;;;;;;21.70;13.35;;;-10.00;94.20;;;;;;4929431;29;20491;-82
2023/12/10 03:35:09;;;;;;;21.35;14.10;;;-9.90;94.20;;;;;;4938934;29;20031;-83
2023/12/10 03:37:35;;;;;;;19.05;10.88;;;-9.90;94.20;;;;;;4948775;29;20027;-82
2023/12/10 03:40:01;;;;;;;20.92;10.57;;;-9.90;94.20;;;;;;4928184;29;20024;-81
2023/12/10 03:42:27;;;;;;;25.02;12.55;;;-9.90;94.20;;;;;;4939005;29;20027;-82
2023/12/10 03:44:53;;;;;;;22.63;10.88;;;-9.90;94.10;;;;;;4917403;29;20405;-81
2023/12/10 03:47:19;;;;;;;26.33;11.75;;;-9.90;94.10;;;;;;4937815;29;20048;-82
2023/12/10 03:49:44;;;;;;;23.98;11.27;;;-9.90;94.10;;;;;;4927576;29;20032;-82
2023/12/10 03:52:13;;;;;;;;;;;-9.90;94.20;;;;;;4938161;29;20080;-82
2023/12/10 03:54:39;;;;;;;19.02;8.95;;;-9.90;94.20;;;;;;4940128;29;19954;-82
2023/12/10 03:57:05;;;;;;;16.03;10.80;;;-9.90;94.30;;;;;;4921789;29;20118;-81
2023/12/10 03:59:31;;;;;;;27.40;12.40;;;-9.80;94.40;;;;;;4938087;29;20070;-83
2023/12/10 04:01:57;;;;;;;26.80;12.05;;;-9.90;94.20;;;;;;4936720;29;20032;-83
2023/12/10 04:04:23;;;;;;;21.50;12.05;;;-9.80;94.20;;;;;;4937750;29;20497;-82
2023/12/10 04:06:49;;;;;;;21.17;11.70;;;-9.80;94.20;;;;;;4937698;29;20067;-83
2023/12/10 04:09:15;;;;;;;19.52;11.80;;;-9.90;93.90;;;;;;4942368;29;20031;-82
2023/12/10 04:11:41;;;;;;;22.88;11.23;;;-9.90;94.00;;;;;;4922721;29;20023;-81
2023/12/10 04:14:09;;;;;;;20.83;10.45;;;-9.90;94.00;;;;;;4936335;29;20027;-82
2023/12/10 04:16:35;;;;;;;22.08;12.27;;;-9.90;94.20;;;;;;4938994;29;20405;-80
2023/12/10 04:19:00;;;;;;;28.73;12.90;;;-9.90;94.40;;;;;;4937408;29;20023;-81
2023/12/10 04:21:26;;;;;;;25.75;10.70;;;-9.90;94.30;;;;;;4933751;29;20032;-80
2023/12/10 04:23:52;;;;;;;24.73;12.00;;;-9.90;94.40;;;;;;4938394;29;20020;-81
2023/12/10 04:26:18;;;;;;;24.08;12.55;;;-9.90;94.40;;;;;;4916866;29;20031;-81
2023/12/10 04:28:45;;;;;;;24.95;11.38;;;-9.90;94.50;;;;;;4923639;29;20393;-81
2023/12/10 04:31:10;;;;;;;23.23;12.37;;;-9.80;94.60;;;;;;4937099;29;20393;-81
2023/12/10 04:33:37;;;;;;;21.95;11.05;;;-9.80;94.40;;;;;;4935340;29;20296;-82
2023/12/10 04:36:03;;;;;;;18.23;10.15;;;-9.80;94.40;;;;;;4936999;29;20028;-83
2023/12/10 04:38:30;;;;;;;26.00;12.38;;;-9.80;94.40;;;;;;4937065;29;20118;-81
2023/12/10 04:40:55;;;;;;;17.98;10.30;;;-9.80;94.50;;;;;;4938521;29;20034;-82
2023/12/10 04:43:21;;;;;;;22.65;12.40;;;-9.70;94.40;;;;;;4942756;29;20114;-82
2023/12/10 04:45:47;;;;;;;24.40;11.05;;;-9.70;94.50;;;;;;4938810;29;20533;-82
2023/12/10 04:48:14;;;;;;;23.48;10.63;;;-9.70;94.50;;;;;;4938367;29;20465;-81
2023/12/10 04:50:40;;;;;;;25.60;11.65;;;-9.70;94.50;;;;;;4939312;29;20028;-81
2023/12/10 04:53:06;;;;;;;21.45;12.48;;;-9.60;94.50;;;;;;4942960;29;20031;-82
2023/12/10 04:55:32;;;;;;;20.95;11.13;;;-9.60;94.50;;;;;;4936864;29;20062;-81
2023/12/10 04:57:59;;;;;;;23.30;11.40;;;-9.60;94.20;;;;;;4916677;29;20055;-81
2023/12/10 05:00:25;;;;;;;23.67;10.53;;;-9.70;94.20;;;;;;4919705;29;20060;-81
2023/12/10 05:02:51;;;;;;;20.27;10.27;;;-9.70;94.30;;;;;;4936680;29;20273;-83
2023/12/10 05:05:17;;;;;;;24.83;12.00;;;-9.70;94.20;;;;;;4934693;29;20078;-82
2023/12/10 05:07:43;;;;;;;24.58;12.10;;;-9.80;94.20;;;;;;4936463;29;20066;-83
2023/12/10 05:10:09;;;;;;;16.65;10.30;;;-9.80;94.40;;;;;;4936612;29;20020;-81
2023/12/10 05:12:38;;;;;;;25.27;12.07;;;-9.80;94.50;;;;;;4918863;29;20464;-83
2023/12/10 05:15:04;;;;;;;22.40;10.75;;;-9.80;94.50;;;;;;4936784;29;20107;-81
2023/12/10 05:17:30;;;;;;;27.58;10.73;;;-9.70;94.60;;;;;;4936000;29;20059;-82
2023/12/10 05:19:56;;;;;;;23.95;12.07;;;-9.70;94.50;;;;;;4935093;29;20070;-82
2023/12/10 05:22:22;;;;;;;26.10;12.93;;;-9.70;94.40;;;;;;4935174;29;20569;-80
2023/12/10 05:24:48;;;;;;;21.45;10.07;;;-9.70;94.40;;;;;;4936643;29;20094;-82
2023/12/10 05:27:15;;;;;;;23.83;12.20;;;-9.70;94.50;;;;;;4928901;29;20076;-81
2023/12/10 05:29:41;;;;;;;31.55;10.90;;;-9.70;94.60;;;;;;4930504;29;20028;-82
2023/12/10 05:32:07;;;;;;;32.25;14.70;;;-9.70;94.80;;;;;;4936374;29;20114;-81
2023/12/10 05:34:33;;;;;;;18.83;10.13;;;-9.70;94.80;;;;;;4936108;29;20111;-80
2023/12/10 05:36:59;;;;;;;25.23;12.90;;;-9.60;94.70;;;;;;4935803;29;20423;-82
2023/12/10 05:39:25;;;;;;;25.15;12.48;;;-9.70;94.40;;;;;;4934960;29;20389;-80
2023/12/10 05:41:51;;;;;;;25.80;12.25;;;-9.70;94.40;;;;;;4921991;29;20060;-80
2023/12/10 05:44:17;;;;;;;23.55;11.75;;;-9.70;94.60;;;;;;4941520;29;20103;-81
2023/12/10 05:46:43;;;;;;;18.30;10.35;;;-9.70;94.80;;;;;;4934815;29;20016;-81
2023/12/10 05:49:09;;;;;;;20.58;11.82;;;-9.70;94.50;;;;;;4930359;29;20044;-82
2023/12/10 05:51:34;;;;;;;21.38;12.60;;;-9.80;94.40;;;;;;4916904;29;20060;-82
2023/12/10 05:54:00;;;;;;;25.50;11.63;;;-9.80;94.70;;;;;;4933731;29;20020;-82
2023/12/10 05:56:26;;;;;;;22.02;11.13;;;-9.80;94.70;;;;;;4935037;29;20549;-82
2023/12/10 05:58:52;;;;;;;22.33;11.68;;;-9.80;95.00;;;;;;4937629;29;20071;-83
2023/12/10 06:01:18;;;;;;;22.08;11.38;;;-9.80;94.80;;;;;;4940093;29;20480;-83
2023/12/10 06:03:44;;;;;;;23.60;11.68;;;-9.80;94.70;;;;;;4936068;29;20476;-81
2023/12/10 06:06:10;;;;;;;26.38;11.95;;;-9.80;94.70;;;;;;4922855;29;20511;-83
2023/12/10 06:08:36;;;;;;;23.30;13.45;;;-9.70;95.00;;;;;;4936189;29;20031;-81
2023/12/10 06:11:02;;;;;;;20.33;11.23;;;-9.70;94.90;;;;;;4907721;29;20188;-81
2023/12/10 06:13:28;;;;;;;20.15;12.18;;;-9.80;94.90;;;;;;4915137;29;20024;-81
2023/12/10 06:15:57;;;;;;;18.48;11.07;;;-9.70;94.90;;;;;;4914820;29;20036;-80
2023/12/10 06:18:23;;;;;;;22.33;14.65;;;-9.70;95.00;;;;;;4937540;29;20102;-83
2023/12/10 06:20:49;;;;;;;20.83;13.10;;;-9.70;94.90;;;;;;4917625;29;20505;-82
2023/12/10 06:23:15;;;;;;;12.75;7.47;;;-9.70;94.90;;;;;;4942791;29;20099;-84
2023/12/10 06:25:41;;;;;;;19.48;11.60;;;-9.70;94.90;;;;;;4943900;29;20062;-82
2023/12/10 06:28:07;;;;;;;19.90;11.70;;;-9.70;94.80;;;;;;4921795;29;20047;-81
2023/12/10 06:30:33;;;;;;;31.38;14.20;;;-9.60;95.00;;;;;;4934674;29;20024;-82
2023/12/10 06:32:59;;;;;;;26.52;12.70;;;-9.60;95.20;;;;;;4935924;29;20083;-82
2023/12/10 06:35:25;;;;;;;30.10;12.00;;;-9.60;95.20;;;;;;4913705;29;20028;-83
2023/12/10 06:37:51;;;;;;;29.52;12.55;;;-9.60;95.30;;;;;;4921859;29;20039;-81
2023/12/10 06:40:17;;;;;;;21.98;11.32;;;-9.50;95.00;;;;;;4914873;29;20507;-82
2023/12/10 06:42:43;;;;;;;29.48;12.00;;;-9.50;94.90;;;;;;4918416;29;20035;-84
2023/12/10 06:45:10;;;;;;;26.67;15.75;;;-9.50;94.90;;;;;;4936040;29;20028;-83
2023/12/10 06:47:36;;;;;;;24.85;12.82;;;-9.50;94.90;;;;;;4934358;29;20066;-84
2023/12/10 06:50:03;;;;;;;22.05;11.90;;;-9.40;95.00;;;;;;4935262;29;20028;-82
2023/12/10 06:52:29;;;;;;;31.60;14.15;;;-9.40;94.90;;;;;;4935117;29;20075;-82
2023/12/10 06:54:55;;;;;;;18.73;10.55;;;-9.40;94.80;;;;;;4928219;29;20107;-84
2023/12/10 06:57:21;;;;;;;19.52;10.63;;;-9.40;94.80;;;;;;4942215;29;20024;-83
2023/12/10 06:59:46;;;;;;;21.27;12.95;;;-9.30;95.00;;;;;;4944474;29;20038;-84
2023/12/10 07:02:13;;;;;;;21.50;11.55;;;-9.30;95.10;;;;;;4944831;29;20075;-82
2023/12/10 07:04:39;;;;;;;20.63;11.05;;;-9.20;95.00;;;;;;4924244;29;20024;-83
2023/12/10 07:07:05;;;;;;;23.48;12.38;;;-9.20;94.90;;;;;;4939707;29;20036;-83
2023/12/10 07:09:31;;;;;;;21.83;13.00;;;-9.20;94.80;;;;;;4939607;29;20024;-82
2023/12/10 07:11:57;;;;;;;21.48;11.13;;;-9.20;94.80;;;;;;4954050;29;20111;-82
2023/12/10 07:14:22;;;;;;;19.95;12.00;;;-9.10;94.80;;;;;;4949548;29;20102;-84
2023/12/10 07:16:49;;;;;;;22.15;11.30;;;-9.10;94.80;;;;;;4947312;29;20023;-84
2023/12/10 07:19:14;;;;;;;23.95;12.50;;;-9.10;94.50;;;;;;4942448;29;20075;-84
2023/12/10 07:21:40;;;;;;;23.38;10.68;;;-9.10;94.60;;;;;;4938980;29;20015;-83
2023/12/10 07:24:06;;;;;;;19.98;11.00;;;-9.10;94.40;;;;;;4938258;29;20035;-83
2023/12/10 07:26:32;;;;;;;24.85;11.65;;;-9.10;94.50;;;;;;4938795;29;20147;-82
2023/12/10 07:28:58;;;;;;;25.67;10.63;;;-9.10;94.50;;;;;;4938013;29;20046;-83
2023/12/10 07:31:24;;;;;;;30.98;13.30;;;-9.00;94.50;;;;;;4921107;29;20028;-83
2023/12/10 07:33:50;;;;;;;18.20;10.38;;;-9.00;94.40;;;;;;4936470;29;20107;-83
2023/12/10 07:36:16;;;;;;;17.58;11.35;;;-8.90;94.40;;;;;;4917195;29;20028;-83
2023/12/10 07:38:41;;;;;;;18.40;10.15;;;-8.90;94.40;;;;;;4925544;29;20387;-84
2023/12/10 07:41:07;;;;;;;19.38;10.30;;;-8.90;94.20;;;;;;4938145;29;20085;-84
2023/12/10 07:43:33;;;;;;;22.38;10.88;;;-8.90;93.80;;;;;;4938507;29;20027;-85
2023/12/10 07:45:59;;;;;;;26.08;11.55;;;-8.90;93.70;;;;;;4939897;29;20532;-81
2023/12/10 07:48:26;;;;;;;21.63;11.60;;;-8.80;93.70;;;;;;4917506;29;20139;-81
2023/12/10 07:50:52;;;;;;;15.18;8.02;;;-8.90;93.60;;;;;;4924550;29;20024;-82
2023/12/10 07:53:18;;;;;;;22.95;12.05;;;-8.80;93.70;;;;;;4936837;29;20520;-83
2023/12/10 07:55:44;;;;;;;16.35;11.27;;;-8.90;93.40;;;;;;4920692;29;20035;-82
2023/12/10 07:58:10;;;;;;;21.02;10.27;;;-8.80;93.80;;;;;;4938057;29;20031;-84
2023/12/10 08:00:36;;;;;;;27.17;11.20;;;-8.80;93.80;;;;;;4937162;29;20034;-82
2023/12/10 08:03:05;;;;;;;30.33;13.25;;;-8.90;93.70;;;;;;4922038;29;20379;-83
2023/12/10 08:05:31;;;;;;;19.25;10.52;;;-8.80;93.70;;;;;;4936148;29;20023;-85
2023/12/10 08:08:02;;;;;;;22.88;12.23;;;-8.80;93.90;;;;;;4935206;29;20123;-82
2023/12/10 08:10:28;;;;;;;19.73;9.93;;;-8.80;94.00;;;;;;4921988;29;20111;-85
2023/12/10 08:12:54;;;;;;;25.45;12.00;;;-8.70;94.00;;;;;;4935818;29;20023;-86
2023/12/10 08:15:21;;;;;;;18.65;10.57;;;-8.70;94.10;;;;;;4935437;29;20103;-85
2023/12/10 08:17:47;;;;;;;22.53;10.43;;;-8.60;94.00;;;;;;4937383;29;20158;-84
2023/12/10 08:20:13;;;;;;;22.88;10.90;;;-8.60;93.80;;;;;;4935964;29;20290;-83
2023/12/10 08:22:39;;;;;;;19.33;12.20;;;-8.50;93.70;;;;;;4933967;29;20031;-84
2023/12/10 08:25:05;;;;;;;19.48;11.60;;;-8.60;93.50;;;;;;4920072;29;20028;-83
2023/12/10 08:27:31;;;;;;;18.80;10.15;;;-8.50;93.50;;;;;;4937199;29;20034;-84
2023/12/10 08:29:57;;;;;;;19.83;12.60;;;-8.50;93.60;;;;;;4936637;29;20032;-83
2023/12/10 08:32:23;;;;;;;18.17;11.02;;;-8.50;93.50;;;;;;4927815;29;20020;-82
2023/12/10 08:34:49;;;;;;;20.80;10.63;;;-8.50;93.40;;;;;;4920473;29;20083;-84
2023/12/10 08:37:16;;;;;;;21.38;11.65;;;-8.50;93.60;;;;;;4936907;29;20015;-83
2023/12/10 08:39:42;;;;;;;21.98;10.88;;;-8.50;93.40;;;;;;4931610;29;20036;-86
2023/12/10 08:42:08;;;;;;;26.23;13.18;;;-8.50;93.30;;;;;;4909519;29;20124;-83
2023/12/10 08:44:34;;;;;;;22.45;10.50;;;-8.50;93.40;;;;;;4936536;29;20052;-82
2023/12/10 08:47:00;;;;;;;17.33;9.27;;;-8.50;93.30;;;;;;4929985;29;20020;-84
2023/12/10 08:49:29;;;;;;;23.20;12.85;;;-8.40;93.30;;;;;;4936387;29;20043;-84
2023/12/10 08:51:54;;;;;;;21.73;10.75;;;-8.40;93.30;;;;;;4937230;29;20074;-83
2023/12/10 08:54:20;;;;;;;25.98;11.55;;;-8.40;93.10;;;;;;4935980;29;20024;-83
2023/12/10 08:56:46;;;;;;;27.60;11.80;;;-8.40;93.40;;;;;;4937868;29;20034;-85
2023/12/10 08:59:12;;;;;;;21.88;10.85;;;-8.40;93.40;;;;;;4938149;29;20103;-85
2023/12/10 09:01:41;;;;;;;18.98;11.90;;;-8.30;93.50;;;;;;4933687;29;20034;-89
2023/12/10 09:04:07;;;;;;;24.10;14.07;;;-8.30;93.50;;;;;;4943713;29;20393;-85
2023/12/10 09:06:33;;;;;;;28.75;13.68;;;-8.30;93.60;;;;;;4918973;29;20020;-85
2023/12/10 09:08:59;;;;;;;25.20;11.10;;;-8.20;93.60;;;;;;4919099;29;20040;-84
2023/12/10 09:11:25;;;;;;;27.08;11.48;;;-8.20;93.50;;;;;;4920996;29;20335;-82
2023/12/10 09:13:51;;;;;;;20.17;10.90;;;-8.20;93.50;;;;;;4909339;29;20031;-86
2023/12/10 09:16:22;;;;;;;23.00;13.40;;;-8.10;93.50;;;;;;4932983;29;20486;-83
2023/12/10 09:18:49;;;;;;;19.13;10.73;;;-8.10;93.60;;;;;;4929804;29;20028;-85
2023/12/10 09:21:15;;;;;;;21.58;12.02;;;-8.00;93.70;;;;;;4916317;29;20038;-85
2023/12/10 09:23:44;;;;;;;24.00;12.93;;;-8.00;93.80;;;;;;4923820;29;20040;-86
2023/12/10 09:26:10;;;;;;;27.90;13.82;;;-8.00;93.70;;;;;;4926361;29;20031;-86
2023/12/10 09:28:37;;;;;;;24.80;11.27;;;-7.90;93.70;;;;;;4926234;29;20066;-83
2023/12/10 09:31:03;;;;;;;25.63;12.32;;;-7.90;93.80;;;;;;4921675;29;20035;-83
2023/12/10 09:33:30;;;;;;;22.20;11.48;;;-7.80;93.70;;;;;;4935389;29;20028;-81
2023/12/10 09:35:56;;;;;;;20.55;11.98;;;-7.80;93.70;;;;;;4928838;29;20075;-83
2023/12/10 09:38:22;;;;;;;24.25;11.52;;;-7.80;93.60;;;;;;4932041;29;20039;-82
2023/12/10 09:40:48;;;;;;;22.15;11.10;;;-7.70;93.30;;;;;;4936563;29;20028;-82
2023/12/10 09:43:14;;;;;;;24.10;12.10;;;-7.80;92.80;;;;;;4930442;29;20457;-86
2023/12/10 09:45:40;;;;;;;25.45;10.05;;;-7.80;92.90;;;;;;4936587;29;20054;-84
2023/12/10 09:48:07;;;;;;;23.77;12.25;;;-7.80;93.10;;;;;;4911219;29;20056;-82
2023/12/10 09:50:40;;;;;;;21.17;11.10;;;-7.80;93.10;;;;;;4928877;29;20420;-82
2023/12/10 09:53:07;;;;;;;24.42;14.10;;;-7.80;93.00;;;;;;4912933;29;20103;-83
2023/12/10 09:55:33;;;;;;;19.70;9.98;;;-7.80;93.00;;;;;;4924779;29;20021;-83
2023/12/10 09:57:59;;;;;;;39.35;14.35;;;-7.80;92.80;;;;;;4928092;29;20030;-82
2023/12/10 10:00:26;;;;;;;20.00;12.07;;;-7.80;93.00;;;;;;4912282;29;20024;-82
2023/12/10 10:03:00;;;;;;;26.30;11.88;;;-7.80;93.10;;;;;;4928774;29;20097;-84
2023/12/10 10:05:26;;;;;;;21.10;9.40;;;-7.90;92.90;;;;;;4933851;29;20091;-82
2023/12/10 10:07:53;;;;;;;23.30;12.57;;;-7.90;93.10;;;;;;4930721;29;20382;-84
2023/12/10 10:10:22;;;;;;;24.13;13.00;;;-8.00;93.10;;;;;;4927315;29;20496;-83
2023/12/10 10:12:48;;;;;;;19.55;10.38;;;-8.00;93.20;;;;;;4936373;29;20040;-82
2023/12/10 10:15:14;;;;;;;18.42;9.60;;;-8.00;93.30;;;;;;4918966;29;20102;-82
2023/12/10 10:17:43;;;;;;;23.33;10.32;;;-8.00;93.40;;;;;;4935804;29;21790;-83
2023/12/10 10:20:09;;;;;;;24.02;13.50;;;-8.00;93.60;;;;;;4920242;29;20020;-82
2023/12/10 10:22:35;;;;;;;18.27;9.75;;;-8.00;93.60;;;;;;4933069;29;20366;-81
2023/12/10 10:25:03;;;;;;;20.25;10.52;;;-8.00;93.70;;;;;;4917144;29;20890;-84
2023/12/10 10:27:32;;;;;;;23.00;12.68;;;-8.00;93.70;;;;;;4934794;29;20028;-83
2023/12/10 10:30:43;;;;;;;23.13;11.70;;;-8.00;94.00;;;;;;4941920;29;20047;-85
2023/12/10 10:33:21;;;;;;;19.52;11.75;;;-8.00;93.80;;;;;;4941220;29;20040;-84
2023/12/10 10:35:52;;;;;;;20.42;11.25;;;-7.90;93.90;;;;;;4921780;29;20036;-84
2023/12/10 10:38:21;;;;;;;20.38;11.60;;;-7.90;94.00;;;;;;4933809;29;20358;-85
2023/12/10 10:41:00;;;;;;;25.85;12.93;;;-7.90;94.00;;;;;;4919592;29;20482;-85
2023/12/10 10:43:35;;;;;;;21.83;12.10;;;-7.80;94.20;;;;;;4913766;29;20035;-84
2023/12/10 10:46:10;;;;;;;21.33;12.23;;;-7.70;94.30;;;;;;4917952;29;20054;-83
2023/12/10 10:48:40;;;;;;;19.77;10.02;;;-7.70;94.20;;;;;;4932971;29;20060;-82
2023/12/10 10:51:07;;;;;;;27.52;13.70;;;-7.70;94.10;;;;;;4937669;29;20035;-80
2023/12/10 10:53:53;;;;;;;22.95;12.07;;;-7.70;94.00;;;;;;4934756;29;20063;-81
2023/12/10 10:56:27;;;;;;;18.30;10.00;;;-7.70;94.00;;;;;;4934768;29;20038;-82
2023/12/10 10:58:53;;;;;;;21.30;14.48;;;-7.60;93.90;;;;;;4931194;29;20036;-84
2023/12/10 11:01:41;;;;;;;19.88;11.55;;;-7.60;93.90;;;;;;4917633;29;20036;-83
2023/12/10 11:04:16;;;;;;;23.63;12.02;;;-7.60;94.20;;;;;;4931331;29;20023;-82
2023/12/10 11:06:45;;;;;;;22.45;12.55;;;-7.50;94.00;;;;;;4935006;29;20039;-84
2023/12/10 11:09:11;;;;;;;19.58;10.45;;;-7.50;94.00;;;;;;4927990;29;20513;-83
2023/12/10 11:11:40;;;;;;;21.60;11.38;;;-7.50;94.00;;;;;;4908231;29;20032;-82
2023/12/10 11:14:21;;;;;;;21.30;10.20;;;-7.50;94.00;;;;;;4934744;29;20024;-81
2023/12/10 11:17:09;;;;;;;21.83;10.80;;;-7.50;93.90;;;;;;4936005;29;20478;-81
2023/12/10 11:19:36;;;;;;;19.48;11.02;;;-7.50;93.90;;;;;;4921679;29;20043;-82
2023/12/10 11:22:02;;;;;;;24.25;10.98;;;-7.50;94.00;;;;;;4936205;29;20023;-81
2023/12/10 11:24:29;;;;;;;22.95;10.82;;;-7.50;94.00;;;;;;4935132;29;20059;-81
2023/12/10 11:26:55;;;;;;;18.98;10.77;;;-7.40;94.00;;;;;;4932525;29;20072;-82
2023/12/10 11:29:21;;;;;;;20.77;11.45;;;-7.40;94.10;;;;;;4934796;29;20039;-83
2023/12/10 11:31:46;;;;;;;22.20;11.13;;;-7.40;94.20;;;;;;4934471;29;20035;-82
2023/12/10 11:34:12;;;;;;;23.08;13.63;;;-7.30;94.20;;;;;;4935131;29;20129;-87
2023/12/10 11:36:44;;;;;;;20.70;12.10;;;-7.30;94.00;;;;;;4917410;29;20032;-82
2023/12/10 11:39:16;;;;;;;27.33;13.63;;;-7.30;93.90;;;;;;4934454;29;20046;-84
2023/12/10 11:41:43;;;;;;;28.02;11.80;;;-7.30;94.00;;;;;;4917344;29;20055;-80
2023/12/10 11:44:10;;;;;;;;;;;-7.30;93.70;;;;;;4936723;29;20016;-80
2023/12/10 11:46:36;;;;;;;22.00;11.25;;;-7.30;93.80;;;;;;4938595;29;19907;-81
2023/12/10 11:49:02;;;;;;;22.92;13.00;;;-7.30;93.90;;;;;;4944534;29;20078;-82
2023/12/10 11:51:28;;;;;;;26.33;12.32;;;-7.30;94.00;;;;;;4937724;29;20019;-82
2023/12/10 11:53:54;;;;;;;21.05;11.73;;;-7.30;94.10;;;;;;4937325;29;20024;-81
2023/12/10 11:56:21;;;;;;;24.83;14.57;;;-7.30;94.00;;;;;;4915662;29;20050;-79
2023/12/10 11:58:47;;;;;;;21.73;11.25;;;-7.30;94.00;;;;;;4913331;29;20111;-82
2023/12/10 12:01:16;;;;;;;20.02;11.40;;;-7.20;94.20;;;;;;4930496;29;20034;-77
2023/12/10 12:03:42;;;;;;;25.45;11.80;;;-7.20;94.20;;;;;;4937496;29;20026;-81
2023/12/10 12:06:08;;;;;;;23.63;12.95;;;-7.20;94.30;;;;;;4920640;29;20024;-80
2023/12/10 12:08:34;;;;;;;16.88;10.98;;;-7.20;94.20;;;;;;4923231;29;20064;-80
2023/12/10 12:11:00;;;;;;;22.92;11.48;;;-7.20;94.20;;;;;;4937042;29;20019;-79
2023/12/10 12:13:29;;;;;;;22.23;13.05;;;-7.10;94.20;;;;;;4937865;29;20461;-82
2023/12/10 12:15:55;;;;;;;17.02;9.73;;;-7.10;94.30;;;;;;4937060;29;20134;-80
2023/12/10 12:18:26;;;;;;;22.40;10.95;;;-7.10;94.20;;;;;;4920019;29;20485;-81
2023/12/10 12:20:52;;;;;;;25.83;12.98;;;-7.10;94.40;;;;;;4919588;29;20068;-80
2023/12/10 12:23:18;;;;;;;18.95;10.30;;;-7.10;94.30;;;;;;4937052;29;20425;-80
2023/12/10 12:25:44;;;;;;;24.98;11.40;;;-7.10;94.30;;;;;;4919441;29;20027;-81